Skip to main content
Hanford.Gov
Hanford Meteorological Station

Hanford Meteorological Station

Current and Past 96 Hour Observations
Date Time (PST) Ceiling (ft) Visibility (miles) Liquid Precip* Frozen Precip* Obstruction* Sea-Level Pressure (mbs) Dew Point Temp. (°F) Wind Direction (degrees) Wind Direction (from) Wind Speed (mph) Mixing Height (m) Station Pressure (inches Hg) Ambient Temp. (°F) Wet Bulb Temp. (°F) Rel. Hum. (%) Sky Cover (tenths) Rain (inches) Snow (melted inches) Snow (unmelted inches) Solar Radiation (Langleys / min.) WBGT** (°F)
11/26/2021 1400 UNL 15 1026.0 27 260° W 5 600 29.49 38 32 66 0 0.00 0.00 0.0 0.00 0
11/26/2021 1300 UNL 15 1026.0 27 260° W 5 600 29.49 38 32 66 0 0.00 0.00 0.0 0.00 0
11/26/2021 1200 UNL 15 1026.0 27 260° W 5 600 29.49 38 32 66 0 0.00 0.00 0.0 0.00 0
11/26/2021 1100 UNL 15 1026.0 27 260° W 5 600 29.49 38 32 66 0 0.00 0.00 0.0 0.00 0
11/26/2021 1000 UNL 15 1026.0 27 260° W 5 600 29.49 38 32 66 0 0.00 0.00 0.0 0.00 0
11/26/2021 0900 UNL 15 1026.0 27 260° W 5 600 29.49 38 32 66 0 0.00 0.00 0.0 0.00 0
11/26/2021 0800 UNL 15 1026.0 27 260° W 5 600 29.49 38 32 66 0 0.00 0.00 0.0 0.00 0
11/26/2021 0700 UNL 15 1026.0 27 260° W 5 600 29.49 38 32 66 0 0.00 0.00 0.0 0.00 0
11/26/2021 0600 UNL 15 1026.0 27 260° W 5 600 29.49 38 32 66 0 0.00 0.00 0.0 0.00 0
11/26/2021 0500 UNL 15 1026.0 27 260° W 5 600 29.49 38 32 66 0 0.00 0.00 0.0 0.00 0
11/26/2021 0400 UNL 15 1026.0 27 260° W 5 600 29.49 38 32 66 0 0.00 0.00 0.0 0.00 0
11/26/2021 0300 UNL 15 1026.0 27 260° W 5 600 29.49 38 32 66 0 0.00 0.00 0.0 0.00 0
11/26/2021 0200 UNL 15 1026.0 27 260° W 5 600 29.49 38 32 66 0 0.00 0.00 0.0 0.00 0
11/26/2021 0100 UNL 15 1026.0 27 260° W 5 600 29.49 38 32 66 0 0.00 0.00 0.0 0.00 0
11/25/2021 2400 UNL 15 1026.0 27 260° W 5 600 29.49 38 32 66 0 0.00 0.00 0.0 0.00 0
11/25/2021 2300 UNL 15 1026.0 27 260° W 5 600 29.49 38 32 66 0 0.00 0.00 0.0 0.00 0
11/25/2021 2200 UNL 15 1026.0 27 260° W 5 600 29.49 38 32 66 0 0.00 0.00 0.0 0.00 0
11/25/2021 2100 UNL 15 1026.0 27 260° W 5 600 29.49 38 32 66 0 0.00 0.00 0.0 0.00 0
11/25/2021 2000 UNL 15 1026.0 27 260° W 5 600 29.49 38 32 66 0 0.00 0.00 0.0 0.00 0
11/25/2021 1900 UNL 15 1026.0 27 260° W 5 600 29.49 38 32 66 0 0.00 0.00 0.0 0.00 0
11/25/2021 1800 UNL 15 1026.0 27 260° W 5 600 29.49 38 32 66 0 0.00 0.00 0.0 0.00 0
11/25/2021 1700 UNL 15 1026.0 27 260° W 5 600 29.49 38 32 66 0 0.00 0.00 0.0 0.00 0
11/25/2021 1600 UNL 15 1026.0 27 260° W 5 600 29.49 38 32 66 0 0.00 0.00 0.0 0.00 0
11/25/2021 1500 UNL 15 1026.0 27 260° W 5 600 29.49 38 32 66 0 0.00 0.00 0.0 0.00 0
11/25/2021 1400 UNL 15 1026.0 27 260° W 5 600 29.49 38 32 66 0 0.00 0.00 0.0 0.00 0
11/25/2021 1300 UNL 15 1026.0 27 260° W 5 600 29.49 38 32 66 0 0.00 0.00 0.0 0.00 0
11/25/2021 1200 UNL 15 1026.0 27 260° W 5 600 29.49 38 32 66 0 0.00 0.00 0.0 0.00 0
11/25/2021 1100 UNL 15 1026.0 27 260° W 5 600 29.49 38 32 66 0 0.00 0.00 0.0 0.00 0
11/25/2021 1000 UNL 15 1026.0 27 260° W 5 600 29.49 38 32 66 0 0.00 0.00 0.0 0.00 0
11/25/2021 0900 UNL 15 1026.0 27 260° W 5 600 29.49 38 32 66 0 0.00 0.00 0.0 0.00 0
11/25/2021 0800 UNL 15 1026.0 27 260° W 5 600 29.49 38 32 66 0 0.00 0.00 0.0 0.00 0
11/25/2021 0700 UNL 15 1026.0 27 260° W 5 600 29.49 38 32 66 0 0.00 0.00 0.0 0.00 0
11/25/2021 0600 UNL 15 1026.0 27 260° W 5 600 29.49 38 32 66 0 0.00 0.00 0.0 0.00 0
11/25/2021 0500 UNL 15 1026.0 27 260° W 5 600 29.49 38 32 66 0 0.00 0.00 0.0 0.00 0
11/25/2021 0400 UNL 15 1026.0 27 260° W 5 600 29.49 38 32 66 0 0.00 0.00 0.0 0.00 0
11/25/2021 0300 UNL 15 1026.0 27 260° W 5 600 29.49 38 32 66 0 0.00 0.00 0.0 0.00 0
11/25/2021 0200 UNL 15 1026.0 27 260° W 5 600 29.49 38 32 66 0 0.00 0.00 0.0 0.00 0
11/25/2021 0100 UNL 15 1026.0 27 260° W 5 600 29.49 38 32 66 0 0.00 0.00 0.0 0.00 0
11/24/2021 2400 UNL 15 1026.0 27 260° W 5 600 29.49 38 32 66 0 0.00 0.00 0.0 0.00 0
11/24/2021 2300 UNL 15 1026.0 27 260° W 5 600 29.49 38 32 66 0 0.00 0.00 0.0 0.00 0
11/24/2021 2200 UNL 15 1026.0 27 260° W 5 600 29.49 38 32 66 0 0.00 0.00 0.0 0.00 0
11/24/2021 2100 UNL 15 1026.0 27 260° W 5 600 29.49 38 32 66 0 0.00 0.00 0.0 0.00 0
11/24/2021 2000 UNL 15 1026.0 27 260° W 5 600 29.49 38 32 66 0 0.00 0.00 0.0 0.00 0
11/24/2021 1900 UNL 15 1026.0 27 260° W 5 600 29.49 38 32 66 0 0.00 0.00 0.0 0.00 0
11/24/2021 1800 UNL 15 1026.0 27 260° W 5 600 29.49 38 32 66 0 0.00 0.00 0.0 0.00 0
11/24/2021 1700 UNL 15 1026.0 27 260° W 5 600 29.49 38 32 66 0 0.00 0.00 0.0 0.00 0
11/24/2021 1600 UNL 15 1026.0 27 260° W 5 600 29.49 38 32 66 0 0.00 0.00 0.0 0.00 0
11/24/2021 1500 UNL 15 1026.0 27 260° W 5 600 29.49 38 32 66 0 0.00 0.00 0.0 0.00 0
11/24/2021 1400 UNL 15 1026.0 27 260° W 5 600 29.49 38 32 66 0 0.00 0.00 0.0 0.00 0
11/24/2021 1300 UNL 15 1026.0 27 260° W 5 600 29.49 38 32 66 0 0.00 0.00 0.0 0.00 0
11/24/2021 1200 UNL 15 1026.0 27 260° W 5 600 29.49 38 32 66 0 0.00 0.00 0.0 0.00 0
11/24/2021 1100 UNL 15 1026.0 27 260° W 5 600 29.49 38 32 66 0 0.00 0.00 0.0 0.00 0
11/24/2021 1000 UNL 15 1026.0 27 260° W 5 600 29.49 38 32 66 0 0.00 0.00 0.0 0.00 0
11/24/2021 0900 UNL 15 1026.0 27 260° W 5 600 29.49 38 32 66 0 0.00 0.00 0.0 0.00 0
11/24/2021 0800 UNL 15 1026.0 27 260° W 5 600 29.49 38 32 66 0 0.00 0.00 0.0 0.00 0
11/24/2021 0700 UNL 15 1026.0 27 260° W 5 600 29.49 38 32 66 0 0.00 0.00 0.0 0.00 0
11/24/2021 0600 UNL 15 1026.0 27 260° W 5 600 29.49 38 32 66 0 0.00 0.00 0.0 0.00 0
11/24/2021 0500 UNL 15 1026.0 27 260° W 5 600 29.49 38 32 66 0 0.00 0.00 0.0 0.00 0
11/24/2021 0400 UNL 15 1026.0 27 260° W 5 600 29.49 38 32 66 0 0.00 0.00 0.0 0.00 0
11/24/2021 0300 UNL 15 1026.0 27 260° W 5 600 29.49 38 32 66 0 0.00 0.00 0.0 0.00 0
11/24/2021 0200 UNL 15 1026.0 27 260° W 5 600 29.49 38 32 66 0 0.00 0.00 0.0 0.00 0
11/24/2021 0100 UNL 15 1026.0 27 260° W 5 600 29.49 38 32 66 0 0.00 0.00 0.0 0.00 0
11/23/2021 2400 UNL 15 1025.4 28 250° WSW 7 400 29.47 36 33 71 0 0.00 0.00 0.0 0.00 0
11/23/2021 2300 UNL 15 1024.6 29 260° W 12 700 29.45 40 33 66 0 0.00 0.00 0.0 0.00 0
11/23/2021 2200 UNL 15 1023.7 28 280° W 9 400 29.42 37 33 70 0 0.00 0.00 0.0 0.00 0
11/23/2021 2100 UNL 15 1022.5 27 270° W 10 700 29.39 41 35 57 0 0.00 0.00 0.0 0.00 0
11/23/2021 2000 UNL 15 1021.5 27 270° W 13 1000 29.36 44 36 50 0 0.00 0.00 0.0 0.00 0
11/23/2021 1900 UNL 15 1021.2 29 280° W 11 700 29.35 42 36 58 0 0.00 0.00 0.0 0.00 0
11/23/2021 1800 UNL 15 1019.8 30 290° WNW 16 900 29.31 44 38 56 0 0.00 0.00 0.0 0.00 0
11/23/2021 1700 UNL 15 1016.8 32 280° W 14 1100 29.23 46 39 58 0 0.00 0.00 0.0 0.00 0
11/23/2021 1600 UNL 15 1017.4 34 280° W 10 1200 29.24 49 41 56 0 0.00 0.00 0.0 0.12 0
11/23/2021 1500 UNL 15 1015.8 33 260° W 16 1500 29.19 51 42 49 3 0.00 0.00 0.0 0.22 0
11/23/2021 1400 10000 15 1014.8 34 310° NW 11 1500 29.17 53 43 48 6 0.00 0.00 0.0 0.35 0
11/23/2021 1300 8000 15 1013.8 35 280° W 11 1500 29.14 51 43 55 7 0.00 0.00 0.0 0.57 0
11/23/2021 1200 8000 15 1013.5 35 20° NNE 3 900 29.13 44 39 72 6 0.00 0.00 0.0 0.51 0
11/23/2021 1100 UNL 10 Fog 1013.2 34 340° NNW 3 700 29.12 39 36 81 5 0.00 0.00 0.0 0.38 0
11/23/2021 1000 400 5 Fog 1012.9 34 320° NW 10 400 29.11 35 34 97 10 0.00 0.00 0.0 0.14 0
11/23/2021 0900 400 5 Fog 1012.4 34 330° NNW 6 500 29.09 35 34 97 10 0.00 0.00 0.0 0.09 0
11/23/2021 0800 400 1 Light Rain Fog 1011.7 34 310° NW 4 400 29.07 34 34 98 10 trace 0.00 0.0 0.02 0
11/23/2021 0700 800 4 Light Rain Fog 1011.9 33 290° WNW 4 400 29.08 34 33 97 10 trace 0.00 0.0 0.00 0
11/23/2021 0600 800 8 Fog 1011.9 33 140° SE 4 500 29.08 34 34 96 10 0.00 0.00 0.0 0.00 0
11/23/2021 0500 NA 4 Fog 1011.9 33 120° ESE 9 NA 29.08 34 33 96 NA 0.00 0.00 0.0 0.00 0
11/23/2021 0400 NA 4 Light Rain Fog 1012.9 33 120° ESE 4 NA 29.11 34 33 97 NA 0.01 0.00 0.0 0.00 0
11/23/2021 0300 NA 3 Light Rain Fog 1011.6 32 140° SE 10 NA 29.07 33 32 98 NA 0.01 0.00 0.0 0.00 0
11/23/2021 0200 NA 2 Light Rain Fog 1014.2 32 130° SE 2 NA 29.15 33 32 97 NA 0.10 0.00 0.0 0.00 0
11/23/2021 0100 600 7 Light Rain 1014.8 32 200° SSW 3 140 29.16 34 33 92 10 trace 0.00 0.0 0.00 0
11/22/2021 2400 600 8 1015.0 32 160° SSE 2 140 29.17 34 33 93 10 0.00 0.00 0.0 0.00 0
11/22/2021 2300 600 8 1015.3 32 70° ENE 2 140 29.18 34 33 92 10 0.00 0.00 0.0 0.00 0
11/22/2021 2200 800 11 1016.2 32 100° E 3 140 29.20 34 33 92 10 0.00 0.00 0.0 0.00 0
11/22/2021 2100 800 12 1016.7 32 40° NE 2 140 29.22 34 33 91 10 0.00 0.00 0.0 0.00 0
11/22/2021 2000 800 13 1017.0 32 50° NE 2 140 29.23 35 33 90 10 0.00 0.00 0.0 0.00 0
11/22/2021 1900 800 12 1017.5 32 100° E 1 140 29.24 35 33 91 10 0.00 0.00 0.0 0.00 0
11/22/2021 1800 1000 14 1018.0 32 30° NNE 4 140 29.25 33 88 10 0 0.00 0.00 0.0 0.00 0
11/22/2021 1700 1600 15 1018.5 31 40° NE 4 140 29.27 36 33 83 10 0.00 0.00 0.0 0.00 0
11/22/2021 1600 1600 15 1019.0 31 70° ENE 5 140 29.29 36 33 81 10 0.00 0.00 0.0 0.04 0
11/22/2021 1500 1600 15 1019.4 30 60° ENE 4 140 29.30 37 33 77 9 0.00 0.00 0.0 0.09 0
NA = information not available due to unmanned weather station
*= This weather occurred at observation time or during the hour
** WBGT is the Web Bulb Global Temperature Outside observed at HMS (0=unavailable)
NA = information not available due to unmanned weather station
*= This weather occurred at observation time or during the hour
** WBGT is the Web Bulb Global Temperature Outside observed at HMS (0=unavailable)